sensor_id;sensor_type;location;lat;lon;timestamp;P1;durP1;ratioP1;P2;durP2;ratioP2
30970;SDS011;17651;52.262;10.498;2024-02-16T00:00:08;8.60;;;4.70;;
30970;SDS011;17651;52.262;10.498;2024-02-16T00:02:24;8.70;;;4.65;;
30970;SDS011;17651;52.262;10.498;2024-02-16T00:04:35;5.63;;;4.18;;
30970;SDS011;17651;52.262;10.498;2024-02-16T00:06:46;8.20;;;4.78;;
30970;SDS011;17651;52.262;10.498;2024-02-16T00:08:59;5.72;;;4.07;;
30970;SDS011;17651;52.262;10.498;2024-02-16T00:11:10;5.85;;;3.88;;
30970;SDS011;17651;52.262;10.498;2024-02-16T00:13:22;7.75;;;3.60;;
30970;SDS011;17651;52.262;10.498;2024-02-16T00:15:33;6.63;;;3.70;;
30970;SDS011;17651;52.262;10.498;2024-02-16T00:17:45;7.93;;;3.92;;
30970;SDS011;17651;52.262;10.498;2024-02-16T00:19:56;9.18;;;4.20;;
30970;SDS011;17651;52.262;10.498;2024-02-16T00:22:07;8.02;;;4.35;;
30970;SDS011;17651;52.262;10.498;2024-02-16T00:24:18;6.65;;;4.22;;
30970;SDS011;17651;52.262;10.498;2024-02-16T00:26:29;9.13;;;4.32;;
30970;SDS011;17651;52.262;10.498;2024-02-16T00:28:41;8.23;;;4.60;;
30970;SDS011;17651;52.262;10.498;2024-02-16T00:30:52;8.20;;;4.35;;
30970;SDS011;17651;52.262;10.498;2024-02-16T00:33:03;5.80;;;3.92;;
30970;SDS011;17651;52.262;10.498;2024-02-16T00:35:14;9.38;;;3.80;;
30970;SDS011;17651;52.262;10.498;2024-02-16T00:37:29;7.75;;;4.15;;
30970;SDS011;17651;52.262;10.498;2024-02-16T00:39:40;5.50;;;3.83;;
30970;SDS011;17651;52.262;10.498;2024-02-16T00:41:51;6.22;;;3.38;;
30970;SDS011;17651;52.262;10.498;2024-02-16T00:44:03;7.93;;;3.78;;
30970;SDS011;17651;52.262;10.498;2024-02-16T00:46:14;4.20;;;3.65;;
30970;SDS011;17651;52.262;10.498;2024-02-16T00:48:25;7.13;;;3.60;;
30970;SDS011;17651;52.262;10.498;2024-02-16T00:50:36;8.23;;;3.90;;
30970;SDS011;17651;52.262;10.498;2024-02-16T00:52:47;4.95;;;3.50;;
30970;SDS011;17651;52.262;10.498;2024-02-16T00:54:58;6.05;;;3.47;;
30970;SDS011;17651;52.262;10.498;2024-02-16T00:57:09;7.25;;;3.47;;
30970;SDS011;17651;52.262;10.498;2024-02-16T00:59:20;4.93;;;3.53;;
30970;SDS011;17651;52.262;10.498;2024-02-16T01:01:31;6.00;;;3.97;;
30970;SDS011;17651;52.262;10.498;2024-02-16T01:03:43;5.28;;;3.55;;
30970;SDS011;17651;52.262;10.498;2024-02-16T01:05:54;4.90;;;3.50;;
30970;SDS011;17651;52.262;10.498;2024-02-16T01:08:05;5.85;;;3.75;;
30970;SDS011;17651;52.262;10.498;2024-02-16T01:10:16;5.32;;;3.88;;
30970;SDS011;17651;52.262;10.498;2024-02-16T01:12:27;6.30;;;3.47;;
30970;SDS011;17651;52.262;10.498;2024-02-16T01:14:40;6.18;;;3.53;;
30970;SDS011;17651;52.262;10.498;2024-02-16T01:16:51;7.57;;;3.67;;
30970;SDS011;17651;52.262;10.498;2024-02-16T01:19:03;4.03;;;3.63;;
30970;SDS011;17651;52.262;10.498;2024-02-16T01:21:16;5.80;;;3.85;;
30970;SDS011;17651;52.262;10.498;2024-02-16T01:23:27;6.80;;;3.92;;
30970;SDS011;17651;52.262;10.498;2024-02-16T01:25:38;6.35;;;3.15;;
30970;SDS011;17651;52.262;10.498;2024-02-16T01:27:49;7.95;;;3.30;;
30970;SDS011;17651;52.262;10.498;2024-02-16T01:30:00;6.53;;;3.15;;
30970;SDS011;17651;52.262;10.498;2024-02-16T01:32:13;3.85;;;3.10;;
30970;SDS011;17651;52.262;10.498;2024-02-16T01:34:24;5.20;;;3.13;;
30970;SDS011;17651;52.262;10.498;2024-02-16T01:36:35;4.07;;;2.90;;
30970;SDS011;17651;52.262;10.498;2024-02-16T01:38:46;6.93;;;3.08;;
30970;SDS011;17651;52.262;10.498;2024-02-16T01:40:57;7.30;;;2.90;;
30970;SDS011;17651;52.262;10.498;2024-02-16T01:43:08;7.40;;;3.17;;
30970;SDS011;17651;52.262;10.498;2024-02-16T01:45:19;3.50;;;2.45;;
30970;SDS011;17651;52.262;10.498;2024-02-16T01:47:30;4.43;;;2.80;;
30970;SDS011;17651;52.262;10.498;2024-02-16T01:49:41;5.13;;;2.85;;
30970;SDS011;17651;52.262;10.498;2024-02-16T01:51:53;5.63;;;2.53;;
30970;SDS011;17651;52.262;10.498;2024-02-16T01:54:04;5.07;;;2.65;;
30970;SDS011;17651;52.262;10.498;2024-02-16T01:56:15;3.55;;;2.40;;
30970;SDS011;17651;52.262;10.498;2024-02-16T01:58:26;4.22;;;2.70;;
30970;SDS011;17651;52.262;10.498;2024-02-16T02:00:38;5.55;;;2.58;;
30970;SDS011;17651;52.262;10.498;2024-02-16T02:02:50;5.72;;;2.58;;
30970;SDS011;17651;52.262;10.498;2024-02-16T02:05:01;3.50;;;2.67;;
30970;SDS011;17651;52.262;10.498;2024-02-16T02:07:15;6.40;;;2.88;;
30970;SDS011;17651;52.262;10.498;2024-02-16T02:09:27;5.55;;;2.75;;
30970;SDS011;17651;52.262;10.498;2024-02-16T02:11:38;7.20;;;3.85;;
30970;SDS011;17651;52.262;10.498;2024-02-16T02:13:49;3.22;;;2.33;;
30970;SDS011;17651;52.262;10.498;2024-02-16T02:16:00;5.07;;;3.00;;
30970;SDS011;17651;52.262;10.498;2024-02-16T02:18:13;5.50;;;2.83;;
30970;SDS011;17651;52.262;10.498;2024-02-16T02:20:24;6.03;;;2.80;;
30970;SDS011;17651;52.262;10.498;2024-02-16T02:22:37;5.20;;;2.78;;
30970;SDS011;17651;52.262;10.498;2024-02-16T02:24:48;3.58;;;3.00;;
30970;SDS011;17651;52.262;10.498;2024-02-16T02:26:59;6.50;;;3.25;;
30970;SDS011;17651;52.262;10.498;2024-02-16T02:29:10;4.95;;;3.17;;
30970;SDS011;17651;52.262;10.498;2024-02-16T02:31:21;5.50;;;2.92;;
30970;SDS011;17651;52.262;10.498;2024-02-16T02:33:32;4.63;;;3.10;;
30970;SDS011;17651;52.262;10.498;2024-02-16T02:35:43;6.70;;;3.00;;
30970;SDS011;17651;52.262;10.498;2024-02-16T02:37:54;6.05;;;3.58;;
30970;SDS011;17651;52.262;10.498;2024-02-16T02:40:06;7.20;;;3.47;;
30970;SDS011;17651;52.262;10.498;2024-02-16T02:42:18;5.78;;;3.13;;
30970;SDS011;17651;52.262;10.498;2024-02-16T02:44:29;5.88;;;3.42;;
30970;SDS011;17651;52.262;10.498;2024-02-16T02:46:42;5.78;;;3.20;;
30970;SDS011;17651;52.262;10.498;2024-02-16T02:48:53;7.25;;;3.20;;
30970;SDS011;17651;52.262;10.498;2024-02-16T02:51:04;6.13;;;3.22;;
30970;SDS011;17651;52.262;10.498;2024-02-16T02:53:15;4.80;;;3.50;;
30970;SDS011;17651;52.262;10.498;2024-02-16T02:55:28;6.43;;;3.78;;
30970;SDS011;17651;52.262;10.498;2024-02-16T02:57:39;5.55;;;3.40;;
30970;SDS011;17651;52.262;10.498;2024-02-16T02:59:50;6.30;;;3.63;;
30970;SDS011;17651;52.262;10.498;2024-02-16T03:02:01;8.50;;;3.30;;
30970;SDS011;17651;52.262;10.498;2024-02-16T03:04:12;6.85;;;4.13;;
30970;SDS011;17651;52.262;10.498;2024-02-16T03:06:23;6.20;;;3.40;;
30970;SDS011;17651;52.262;10.498;2024-02-16T03:08:37;7.20;;;3.35;;
30970;SDS011;17651;52.262;10.498;2024-02-16T03:10:49;6.80;;;3.47;;
30970;SDS011;17651;52.262;10.498;2024-02-16T03:13:01;7.65;;;3.90;;
30970;SDS011;17651;52.262;10.498;2024-02-16T03:15:13;8.63;;;3.90;;
30970;SDS011;17651;52.262;10.498;2024-02-16T03:17:24;9.00;;;3.88;;
30970;SDS011;17651;52.262;10.498;2024-02-16T03:19:35;4.90;;;3.15;;
30970;SDS011;17651;52.262;10.498;2024-02-16T03:21:46;5.65;;;3.53;;
30970;SDS011;17651;52.262;10.498;2024-02-16T03:23:58;8.35;;;3.92;;
30970;SDS011;17651;52.262;10.498;2024-02-16T03:26:16;4.80;;;3.40;;
30970;SDS011;17651;52.262;10.498;2024-02-16T03:28:27;6.57;;;3.70;;
30970;SDS011;17651;52.262;10.498;2024-02-16T03:30:39;7.30;;;4.10;;
30970;SDS011;17651;52.262;10.498;2024-02-16T03:32:50;5.22;;;3.75;;
30970;SDS011;17651;52.262;10.498;2024-02-16T03:35:01;5.93;;;3.67;;
30970;SDS011;17651;52.262;10.498;2024-02-16T03:37:12;6.88;;;3.67;;
30970;SDS011;17651;52.262;10.498;2024-02-16T03:39:23;8.32;;;3.72;;
30970;SDS011;17651;52.262;10.498;2024-02-16T03:41:34;6.15;;;3.92;;
30970;SDS011;17651;52.262;10.498;2024-02-16T03:43:45;4.80;;;3.85;;
30970;SDS011;17651;52.262;10.498;2024-02-16T03:45:56;5.07;;;3.58;;
30970;SDS011;17651;52.262;10.498;2024-02-16T03:48:08;5.90;;;3.80;;
30970;SDS011;17651;52.262;10.498;2024-02-16T03:50:19;7.88;;;3.42;;
30970;SDS011;17651;52.262;10.498;2024-02-16T03:52:31;11.10;;;4.15;;
30970;SDS011;17651;52.262;10.498;2024-02-16T03:54:42;6.63;;;3.88;;
30970;SDS011;17651;52.262;10.498;2024-02-16T03:56:54;5.53;;;3.92;;
30970;SDS011;17651;52.262;10.498;2024-02-16T03:59:05;3.88;;;3.33;;
30970;SDS011;17651;52.262;10.498;2024-02-16T04:01:16;8.70;;;4.15;;
30970;SDS011;17651;52.262;10.498;2024-02-16T04:03:27;5.63;;;3.63;;
30970;SDS011;17651;52.262;10.498;2024-02-16T04:05:38;5.75;;;3.60;;
30970;SDS011;17651;52.262;10.498;2024-02-16T04:07:50;6.60;;;3.72;;
30970;SDS011;17651;52.262;10.498;2024-02-16T04:10:01;6.57;;;3.67;;
30970;SDS011;17651;52.262;10.498;2024-02-16T04:12:12;5.32;;;3.33;;
30970;SDS011;17651;52.262;10.498;2024-02-16T04:14:23;9.20;;;3.60;;
30970;SDS011;17651;52.262;10.498;2024-02-16T04:16:34;6.22;;;3.92;;
30970;SDS011;17651;52.262;10.498;2024-02-16T04:18:45;7.97;;;3.20;;
30970;SDS011;17651;52.262;10.498;2024-02-16T04:20:56;5.57;;;3.30;;
30970;SDS011;17651;52.262;10.498;2024-02-16T04:23:07;7.53;;;3.50;;
30970;SDS011;17651;52.262;10.498;2024-02-16T04:25:18;4.68;;;3.60;;
30970;SDS011;17651;52.262;10.498;2024-02-16T04:27:30;6.47;;;4.00;;
30970;SDS011;17651;52.262;10.498;2024-02-16T04:29:41;3.80;;;3.10;;
30970;SDS011;17651;52.262;10.498;2024-02-16T04:31:52;5.07;;;3.13;;
30970;SDS011;17651;52.262;10.498;2024-02-16T04:34:03;10.45;;;3.30;;
30970;SDS011;17651;52.262;10.498;2024-02-16T04:36:14;8.77;;;3.17;;
30970;SDS011;17651;52.262;10.498;2024-02-16T04:38:25;5.43;;;3.58;;
30970;SDS011;17651;52.262;10.498;2024-02-16T04:40:37;4.25;;;3.10;;
30970;SDS011;17651;52.262;10.498;2024-02-16T04:42:48;8.63;;;3.08;;
30970;SDS011;17651;52.262;10.498;2024-02-16T04:44:59;5.50;;;3.33;;
30970;SDS011;17651;52.262;10.498;2024-02-16T04:47:11;5.72;;;3.03;;
30970;SDS011;17651;52.262;10.498;2024-02-16T04:49:23;5.10;;;3.08;;
30970;SDS011;17651;52.262;10.498;2024-02-16T04:51:34;8.20;;;3.30;;
30970;SDS011;17651;52.262;10.498;2024-02-16T04:53:49;5.70;;;3.50;;
30970;SDS011;17651;52.262;10.498;2024-02-16T04:56:00;7.55;;;3.13;;
30970;SDS011;17651;52.262;10.498;2024-02-16T04:58:12;5.07;;;2.90;;
30970;SDS011;17651;52.262;10.498;2024-02-16T05:00:23;5.35;;;3.25;;
30970;SDS011;17651;52.262;10.498;2024-02-16T05:02:34;6.43;;;3.47;;
30970;SDS011;17651;52.262;10.498;2024-02-16T05:04:45;6.28;;;3.55;;
30970;SDS011;17651;52.262;10.498;2024-02-16T05:06:56;4.80;;;3.30;;
30970;SDS011;17651;52.262;10.498;2024-02-16T05:09:07;6.10;;;3.28;;
30970;SDS011;17651;52.262;10.498;2024-02-16T05:11:19;11.43;;;4.18;;
30970;SDS011;17651;52.262;10.498;2024-02-16T05:13:30;7.50;;;3.67;;
30970;SDS011;17651;52.262;10.498;2024-02-16T05:15:41;8.80;;;4.00;;
30970;SDS011;17651;52.262;10.498;2024-02-16T05:17:52;4.32;;;3.15;;
30970;SDS011;17651;52.262;10.498;2024-02-16T05:20:03;5.45;;;3.55;;
30970;SDS011;17651;52.262;10.498;2024-02-16T05:22:14;4.47;;;2.83;;
30970;SDS011;17651;52.262;10.498;2024-02-16T05:24:28;5.07;;;3.38;;
30970;SDS011;17651;52.262;10.498;2024-02-16T05:26:39;7.05;;;2.92;;
30970;SDS011;17651;52.262;10.498;2024-02-16T05:28:50;5.30;;;3.50;;
30970;SDS011;17651;52.262;10.498;2024-02-16T05:31:03;5.50;;;3.35;;
30970;SDS011;17651;52.262;10.498;2024-02-16T05:33:24;6.05;;;2.95;;
30970;SDS011;17651;52.262;10.498;2024-02-16T05:35:37;6.25;;;2.60;;
30970;SDS011;17651;52.262;10.498;2024-02-16T05:37:49;6.60;;;3.00;;
30970;SDS011;17651;52.262;10.498;2024-02-16T05:40:03;5.18;;;2.65;;
30970;SDS011;17651;52.262;10.498;2024-02-16T05:42:31;3.75;;;2.95;;
30970;SDS011;17651;52.262;10.498;2024-02-16T05:44:42;7.57;;;3.33;;
30970;SDS011;17651;52.262;10.498;2024-02-16T05:46:53;4.63;;;2.88;;
30970;SDS011;17651;52.262;10.498;2024-02-16T05:49:04;6.20;;;2.88;;
30970;SDS011;17651;52.262;10.498;2024-02-16T05:51:15;5.57;;;3.03;;
30970;SDS011;17651;52.262;10.498;2024-02-16T05:53:27;7.55;;;3.28;;
30970;SDS011;17651;52.262;10.498;2024-02-16T05:55:38;5.93;;;2.95;;
30970;SDS011;17651;52.262;10.498;2024-02-16T05:57:49;8.80;;;3.60;;
30970;SDS011;17651;52.262;10.498;2024-02-16T06:00:01;8.55;;;4.10;;
30970;SDS011;17651;52.262;10.498;2024-02-16T06:02:15;7.85;;;4.28;;
30970;SDS011;17651;52.262;10.498;2024-02-16T06:04:26;8.23;;;3.83;;
30970;SDS011;17651;52.262;10.498;2024-02-16T06:06:37;10.02;;;5.20;;
30970;SDS011;17651;52.262;10.498;2024-02-16T06:08:49;16.98;;;6.22;;
30970;SDS011;17651;52.262;10.498;2024-02-16T06:11:00;12.15;;;6.13;;
30970;SDS011;17651;52.262;10.498;2024-02-16T06:13:12;18.27;;;7.45;;
30970;SDS011;17651;52.262;10.498;2024-02-16T06:15:23;19.67;;;8.32;;
30970;SDS011;17651;52.262;10.498;2024-02-16T06:17:34;18.50;;;7.57;;
30970;SDS011;17651;52.262;10.498;2024-02-16T06:19:46;16.58;;;7.28;;
30970;SDS011;17651;52.262;10.498;2024-02-16T06:21:58;10.82;;;5.80;;
30970;SDS011;17651;52.262;10.498;2024-02-16T06:24:09;10.63;;;5.75;;
30970;SDS011;17651;52.262;10.498;2024-02-16T06:26:20;9.75;;;5.82;;
30970;SDS011;17651;52.262;10.498;2024-02-16T06:28:31;8.32;;;4.68;;
30970;SDS011;17651;52.262;10.498;2024-02-16T06:30:42;13.73;;;5.45;;
30970;SDS011;17651;52.262;10.498;2024-02-16T06:32:53;8.90;;;4.90;;
30970;SDS011;17651;52.262;10.498;2024-02-16T06:35:05;9.23;;;4.22;;
30970;SDS011;17651;52.262;10.498;2024-02-16T06:37:17;14.65;;;5.20;;
30970;SDS011;17651;52.262;10.498;2024-02-16T06:39:28;8.98;;;5.20;;
30970;SDS011;17651;52.262;10.498;2024-02-16T06:41:41;7.68;;;4.78;;
30970;SDS011;17651;52.262;10.498;2024-02-16T06:43:54;8.93;;;5.22;;
30970;SDS011;17651;52.262;10.498;2024-02-16T06:46:05;11.52;;;5.18;;
30970;SDS011;17651;52.262;10.498;2024-02-16T06:48:16;9.07;;;4.75;;
30970;SDS011;17651;52.262;10.498;2024-02-16T06:50:27;8.70;;;4.43;;
30970;SDS011;17651;52.262;10.498;2024-02-16T06:52:38;13.20;;;4.10;;
30970;SDS011;17651;52.262;10.498;2024-02-16T06:54:49;12.98;;;4.57;;
30970;SDS011;17651;52.262;10.498;2024-02-16T06:57:01;11.25;;;4.57;;
30970;SDS011;17651;52.262;10.498;2024-02-16T06:59:13;10.63;;;5.47;;
30970;SDS011;17651;52.262;10.498;2024-02-16T07:01:24;12.85;;;5.95;;
30970;SDS011;17651;52.262;10.498;2024-02-16T07:03:37;14.13;;;5.85;;
30970;SDS011;17651;52.262;10.498;2024-02-16T07:05:48;18.67;;;9.15;;
30970;SDS011;17651;52.262;10.498;2024-02-16T07:07:59;18.17;;;9.52;;
30970;SDS011;17651;52.262;10.498;2024-02-16T07:10:10;17.70;;;8.70;;
30970;SDS011;17651;52.262;10.498;2024-02-16T07:12:23;8.95;;;6.78;;
30970;SDS011;17651;52.262;10.498;2024-02-16T07:14:34;10.35;;;6.82;;
30970;SDS011;17651;52.262;10.498;2024-02-16T07:16:45;12.35;;;5.68;;
30970;SDS011;17651;52.262;10.498;2024-02-16T07:18:56;12.38;;;5.53;;
30970;SDS011;17651;52.262;10.498;2024-02-16T07:21:07;10.85;;;5.47;;
30970;SDS011;17651;52.262;10.498;2024-02-16T07:23:19;11.07;;;4.95;;
30970;SDS011;17651;52.262;10.498;2024-02-16T07:25:30;7.63;;;4.85;;
30970;SDS011;17651;52.262;10.498;2024-02-16T07:27:41;10.15;;;4.40;;
30970;SDS011;17651;52.262;10.498;2024-02-16T07:29:52;9.90;;;4.97;;
30970;SDS011;17651;52.262;10.498;2024-02-16T07:32:03;9.95;;;4.65;;
30970;SDS011;17651;52.262;10.498;2024-02-16T07:34:15;6.97;;;3.55;;
30970;SDS011;17651;52.262;10.498;2024-02-16T07:36:26;8.32;;;3.83;;
30970;SDS011;17651;52.262;10.498;2024-02-16T07:38:37;6.60;;;3.50;;
30970;SDS011;17651;52.262;10.498;2024-02-16T07:40:48;5.47;;;3.38;;
30970;SDS011;17651;52.262;10.498;2024-02-16T07:43:00;5.97;;;3.00;;
30970;SDS011;17651;52.262;10.498;2024-02-16T07:45:12;8.07;;;3.35;;
30970;SDS011;17651;52.262;10.498;2024-02-16T07:47:23;4.68;;;2.50;;
30970;SDS011;17651;52.262;10.498;2024-02-16T07:49:37;5.22;;;2.83;;
30970;SDS011;17651;52.262;10.498;2024-02-16T07:51:49;4.07;;;2.55;;
30970;SDS011;17651;52.262;10.498;2024-02-16T07:54:00;3.83;;;2.22;;
30970;SDS011;17651;52.262;10.498;2024-02-16T07:56:12;4.45;;;2.60;;
30970;SDS011;17651;52.262;10.498;2024-02-16T07:58:23;5.15;;;2.50;;
30970;SDS011;17651;52.262;10.498;2024-02-16T08:00:34;5.25;;;2.97;;
30970;SDS011;17651;52.262;10.498;2024-02-16T08:02:45;5.85;;;3.22;;
30970;SDS011;17651;52.262;10.498;2024-02-16T08:04:56;8.85;;;3.70;;
30970;SDS011;17651;52.262;10.498;2024-02-16T08:07:07;7.90;;;3.83;;
30970;SDS011;17651;52.262;10.498;2024-02-16T08:09:19;7.22;;;4.07;;
30970;SDS011;17651;52.262;10.498;2024-02-16T08:11:30;6.00;;;3.30;;
30970;SDS011;17651;52.262;10.498;2024-02-16T08:13:42;10.35;;;3.63;;
30970;SDS011;17651;52.262;10.498;2024-02-16T08:15:53;7.60;;;3.70;;
30970;SDS011;17651;52.262;10.498;2024-02-16T08:18:05;7.75;;;3.45;;
30970;SDS011;17651;52.262;10.498;2024-02-16T08:20:16;11.40;;;4.40;;
30970;SDS011;17651;52.262;10.498;2024-02-16T08:22:27;11.07;;;4.53;;
30970;SDS011;17651;52.262;10.498;2024-02-16T08:24:38;10.27;;;4.25;;
30970;SDS011;17651;52.262;10.498;2024-02-16T08:26:49;10.90;;;4.40;;
30970;SDS011;17651;52.262;10.498;2024-02-16T08:29:00;8.63;;;4.30;;
30970;SDS011;17651;52.262;10.498;2024-02-16T08:31:15;9.65;;;4.40;;
30970;SDS011;17651;52.262;10.498;2024-02-16T08:33:27;6.85;;;3.67;;
30970;SDS011;17651;52.262;10.498;2024-02-16T08:35:39;8.00;;;3.88;;
30970;SDS011;17651;52.262;10.498;2024-02-16T08:37:50;8.90;;;3.78;;
30970;SDS011;17651;52.262;10.498;2024-02-16T08:50:21;6.35;;;2.97;;
30970;SDS011;17651;52.262;10.498;2024-02-16T08:52:32;5.68;;;2.60;;
30970;SDS011;17651;52.262;10.498;2024-02-16T08:54:43;4.75;;;2.28;;
30970;SDS011;17651;52.262;10.498;2024-02-16T08:56:54;3.50;;;2.42;;
30970;SDS011;17651;52.262;10.498;2024-02-16T08:59:05;4.45;;;2.45;;
30970;SDS011;17651;52.262;10.498;2024-02-16T09:11:05;3.78;;;2.22;;
30970;SDS011;17651;52.262;10.498;2024-02-16T09:13:32;4.90;;;2.74;;
30970;SDS011;17651;52.262;10.498;2024-02-16T09:15:43;7.47;;;3.45;;
30970;SDS011;17651;52.262;10.498;2024-02-16T09:17:54;11.25;;;3.80;;
30970;SDS011;17651;52.262;10.498;2024-02-16T09:20:06;9.07;;;4.05;;
30970;SDS011;17651;52.262;10.498;2024-02-16T09:22:18;20.58;;;4.60;;
30970;SDS011;17651;52.262;10.498;2024-02-16T09:24:29;15.07;;;5.10;;
30970;SDS011;17651;52.262;10.498;2024-02-16T09:26:40;9.27;;;4.78;;
30970;SDS011;17651;52.262;10.498;2024-02-16T09:28:51;9.13;;;4.20;;
30970;SDS011;17651;52.262;10.498;2024-02-16T09:31:03;11.38;;;4.45;;
30970;SDS011;17651;52.262;10.498;2024-02-16T09:33:14;10.20;;;4.55;;
30970;SDS011;17651;52.262;10.498;2024-02-16T09:35:25;11.15;;;4.65;;
30970;SDS011;17651;52.262;10.498;2024-02-16T09:37:38;11.48;;;4.70;;
30970;SDS011;17651;52.262;10.498;2024-02-16T09:39:49;13.55;;;4.90;;
30970;SDS011;17651;52.262;10.498;2024-02-16T09:42:01;12.90;;;4.03;;
30970;SDS011;17651;52.262;10.498;2024-02-16T09:44:12;12.43;;;3.72;;
30970;SDS011;17651;52.262;10.498;2024-02-16T09:46:23;9.88;;;4.10;;
30970;SDS011;17651;52.262;10.498;2024-02-16T09:48:35;7.00;;;4.05;;
30970;SDS011;17651;52.262;10.498;2024-02-16T09:50:46;9.45;;;3.25;;
30970;SDS011;17651;52.262;10.498;2024-02-16T09:52:57;7.75;;;3.85;;
30970;SDS011;17651;52.262;10.498;2024-02-16T09:55:12;9.88;;;3.35;;
30970;SDS011;17651;52.262;10.498;2024-02-16T09:57:23;9.07;;;4.60;;
30970;SDS011;17651;52.262;10.498;2024-02-16T09:59:34;7.97;;;3.10;;
30970;SDS011;17651;52.262;10.498;2024-02-16T10:01:45;6.97;;;2.88;;
30970;SDS011;17651;52.262;10.498;2024-02-16T10:04:15;2.80;;;2.10;;
30970;SDS011;17651;52.262;10.498;2024-02-16T10:06:26;9.65;;;3.00;;
30970;SDS011;17651;52.262;10.498;2024-02-16T10:08:47;7.18;;;2.60;;
30970;SDS011;17651;52.262;10.498;2024-02-16T10:11:04;5.90;;;2.75;;
30970;SDS011;17651;52.262;10.498;2024-02-16T10:13:15;7.88;;;3.17;;
30970;SDS011;17651;52.262;10.498;2024-02-16T10:15:26;5.47;;;2.90;;
30970;SDS011;17651;52.262;10.498;2024-02-16T10:17:37;5.60;;;2.60;;
30970;SDS011;17651;52.262;10.498;2024-02-16T10:19:55;3.47;;;2.33;;
30970;SDS011;17651;52.262;10.498;2024-02-16T10:22:09;5.40;;;2.88;;
30970;SDS011;17651;52.262;10.498;2024-02-16T10:24:21;4.18;;;2.10;;
30970;SDS011;17651;52.262;10.498;2024-02-16T10:26:33;4.55;;;2.22;;
30970;SDS011;17651;52.262;10.498;2024-02-16T10:28:47;3.22;;;2.20;;
30970;SDS011;17651;52.262;10.498;2024-02-16T10:30:58;5.05;;;2.50;;
30970;SDS011;17651;52.262;10.498;2024-02-16T10:33:13;3.33;;;2.17;;
30970;SDS011;17651;52.262;10.498;2024-02-16T10:35:24;5.72;;;2.22;;
30970;SDS011;17651;52.262;10.498;2024-02-16T10:37:39;3.58;;;2.38;;
30970;SDS011;17651;52.262;10.498;2024-02-16T10:39:51;4.15;;;2.22;;
30970;SDS011;17651;52.262;10.498;2024-02-16T10:42:02;3.35;;;2.20;;
30970;SDS011;17651;52.262;10.498;2024-02-16T10:44:14;5.45;;;1.83;;
30970;SDS011;17651;52.262;10.498;2024-02-16T10:46:25;2.80;;;1.90;;
30970;SDS011;17651;52.262;10.498;2024-02-16T10:48:36;5.32;;;2.45;;
30970;SDS011;17651;52.262;10.498;2024-02-16T10:50:47;3.28;;;2.35;;
30970;SDS011;17651;52.262;10.498;2024-02-16T10:53:04;4.10;;;1.80;;
30970;SDS011;17651;52.262;10.498;2024-02-16T10:55:17;2.50;;;2.13;;
30970;SDS011;17651;52.262;10.498;2024-02-16T10:57:29;3.58;;;2.35;;
30970;SDS011;17651;52.262;10.498;2024-02-16T10:59:43;3.55;;;2.08;;
30970;SDS011;17651;52.262;10.498;2024-02-16T11:01:59;5.80;;;2.22;;
30970;SDS011;17651;52.262;10.498;2024-02-16T11:04:11;5.90;;;2.13;;
30970;SDS011;17651;52.262;10.498;2024-02-16T11:06:22;4.35;;;2.40;;
30970;SDS011;17651;52.262;10.498;2024-02-16T11:08:37;3.42;;;2.33;;
30970;SDS011;17651;52.262;10.498;2024-02-16T11:10:56;4.05;;;2.55;;
30970;SDS011;17651;52.262;10.498;2024-02-16T11:13:07;3.65;;;2.30;;
30970;SDS011;17651;52.262;10.498;2024-02-16T11:15:26;3.50;;;2.10;;
30970;SDS011;17651;52.262;10.498;2024-02-16T11:17:37;3.53;;;2.00;;
30970;SDS011;17651;52.262;10.498;2024-02-16T11:19:49;3.67;;;2.33;;
30970;SDS011;17651;52.262;10.498;2024-02-16T11:22:04;4.72;;;2.72;;
30970;SDS011;17651;52.262;10.498;2024-02-16T11:24:19;3.75;;;2.17;;
30970;SDS011;17651;52.262;10.498;2024-02-16T11:26:41;5.40;;;2.42;;
30970;SDS011;17651;52.262;10.498;2024-02-16T11:28:53;5.40;;;2.17;;
30970;SDS011;17651;52.262;10.498;2024-02-16T11:31:05;4.68;;;2.70;;
30970;SDS011;17651;52.262;10.498;2024-02-16T11:33:17;3.63;;;2.28;;
30970;SDS011;17651;52.262;10.498;2024-02-16T11:35:28;4.45;;;2.83;;
30970;SDS011;17651;52.262;10.498;2024-02-16T11:37:39;7.22;;;2.80;;
30970;SDS011;17651;52.262;10.498;2024-02-16T11:39:55;3.38;;;2.00;;
30970;SDS011;17651;52.262;10.498;2024-02-16T11:42:07;4.72;;;2.03;;
30970;SDS011;17651;52.262;10.498;2024-02-16T11:44:20;5.07;;;2.17;;
30970;SDS011;17651;52.262;10.498;2024-02-16T11:46:31;5.25;;;2.17;;
30970;SDS011;17651;52.262;10.498;2024-02-16T11:48:43;6.20;;;2.97;;
30970;SDS011;17651;52.262;10.498;2024-02-16T11:51:03;5.80;;;3.47;;
30970;SDS011;17651;52.262;10.498;2024-02-16T11:53:15;4.50;;;2.53;;
30970;SDS011;17651;52.262;10.498;2024-02-16T11:55:27;5.88;;;2.20;;
30970;SDS011;17651;52.262;10.498;2024-02-16T11:57:39;6.93;;;2.58;;
30970;SDS011;17651;52.262;10.498;2024-02-16T11:59:50;4.40;;;2.65;;
30970;SDS011;17651;52.262;10.498;2024-02-16T12:02:02;4.30;;;1.98;;
30970;SDS011;17651;52.262;10.498;2024-02-16T12:04:19;6.45;;;2.55;;
30970;SDS011;17651;52.262;10.498;2024-02-16T12:06:30;4.05;;;2.28;;
30970;SDS011;17651;52.262;10.498;2024-02-16T12:08:41;3.67;;;2.80;;
30970;SDS011;17651;52.262;10.498;2024-02-16T12:10:52;5.28;;;2.58;;
30970;SDS011;17651;52.262;10.498;2024-02-16T12:13:03;5.53;;;2.35;;
30970;SDS011;17651;52.262;10.498;2024-02-16T12:15:15;3.90;;;2.33;;
30970;SDS011;17651;52.262;10.498;2024-02-16T12:17:28;4.25;;;2.13;;
30970;SDS011;17651;52.262;10.498;2024-02-16T12:19:43;4.93;;;2.30;;
30970;SDS011;17651;52.262;10.498;2024-02-16T12:21:55;3.55;;;2.20;;
30970;SDS011;17651;52.262;10.498;2024-02-16T12:24:09;4.70;;;2.70;;
30970;SDS011;17651;52.262;10.498;2024-02-16T12:26:21;5.22;;;2.58;;
30970;SDS011;17651;52.262;10.498;2024-02-16T12:28:32;5.45;;;2.47;;
30970;SDS011;17651;52.262;10.498;2024-02-16T12:30:43;3.53;;;2.40;;
30970;SDS011;17651;52.262;10.498;2024-02-16T12:32:55;5.13;;;2.25;;
30970;SDS011;17651;52.262;10.498;2024-02-16T12:35:06;6.07;;;2.60;;
30970;SDS011;17651;52.262;10.498;2024-02-16T12:37:18;5.10;;;2.15;;
30970;SDS011;17651;52.262;10.498;2024-02-16T12:39:29;6.35;;;2.83;;
30970;SDS011;17651;52.262;10.498;2024-02-16T12:41:40;4.78;;;2.75;;
30970;SDS011;17651;52.262;10.498;2024-02-16T12:43:53;5.80;;;2.38;;
30970;SDS011;17651;52.262;10.498;2024-02-16T12:46:04;3.83;;;2.35;;
30970;SDS011;17651;52.262;10.498;2024-02-16T12:48:15;6.53;;;2.47;;
30970;SDS011;17651;52.262;10.498;2024-02-16T12:50:26;4.90;;;2.35;;
30970;SDS011;17651;52.262;10.498;2024-02-16T12:52:38;6.60;;;3.30;;
30970;SDS011;17651;52.262;10.498;2024-02-16T12:54:49;5.82;;;2.60;;
30970;SDS011;17651;52.262;10.498;2024-02-16T12:57:00;6.65;;;2.40;;
30970;SDS011;17651;52.262;10.498;2024-02-16T12:59:11;3.22;;;2.75;;
30970;SDS011;17651;52.262;10.498;2024-02-16T13:01:22;2.90;;;2.40;;
30970;SDS011;17651;52.262;10.498;2024-02-16T13:03:34;3.58;;;2.17;;
30970;SDS011;17651;52.262;10.498;2024-02-16T13:05:45;7.18;;;2.67;;
30970;SDS011;17651;52.262;10.498;2024-02-16T13:07:56;3.80;;;2.75;;
30970;SDS011;17651;52.262;10.498;2024-02-16T13:10:10;6.50;;;3.17;;
30970;SDS011;17651;52.262;10.498;2024-02-16T13:12:21;6.35;;;2.88;;
30970;SDS011;17651;52.262;10.498;2024-02-16T13:14:33;4.10;;;2.60;;
30970;SDS011;17651;52.262;10.498;2024-02-16T13:16:44;5.68;;;2.97;;
30970;SDS011;17651;52.262;10.498;2024-02-16T13:18:55;3.38;;;2.28;;
30970;SDS011;17651;52.262;10.498;2024-02-16T13:21:07;4.68;;;2.97;;